Avondale, CO (81022)

1:40 PM MDT on July 23, 2016 (GMT -0600)
Pueblo Memorial | | Change Station

Elev 4721 ft 38.29 °N, 104.50 °W | Updated 47 minutes ago

Clear
Clear
99 °F
Feels Like 99 °F
N
9
Wind Variable Wind from WSW
Gusts 18 mph

Today
High -- | Low -- °F
--% Chance of Precip.
Yesterday
High -- | Low -- °F
Precip. -- in
Pressure 29.81 in
Visibility 10.0 miles
Clouds Clear
Dew Point 46 °F
Humidity 16%
Rainfall 0.00 in
Snow Depth Not available.
5:53 AM 8:14 PM
Waning Gibbous, 83% visible
METAR KPUB 231853Z 25008G16KT 10SM CLR 37/08 A3004 RMK AO2 SLP092 T03720078
Pressure 29.81 in
Visibility 10.0 miles
Clouds Clear
Dew Point 46 °F
Humidity 16%
Rainfall 0.00 in
Snow Depth Not available.
5:53 AM 8:14 PM
Waning Gibbous, 83% visible
METAR KPUB 231853Z 25008G16KT 10SM CLR 37/08 A3004 RMK AO2 SLP092 T03720078

10-Day Weather Forecast

Almanac

Astronomy

Jul. 23, 2016 Rise Set
Actual Time
Civil Twilight
Nautical Twilight
Astronomical Twilight
Moon
Length of Visible Light
Length of Day
Tomorrow will be .
, % of the Moon is Illuminated

Today's Extremes

State Highs State Lows

Community

WunderPhotos

Upload Photos

1,926,908 photos uploaded!

WunderBlog® & News

Nearby

Air Quality

  Air Quality AQ Index Pollutant
Not available.

Snow Depth

Station Depth Elevation

Earthquake Activity

City Distance Mag. Time & Date
Minimum magnitude displayed is 2.5.

Coastal Water Temperatures

Place Temperature

Stations

Nearby Weather Stations

Station Location Temp. Windchill Dew Point Humidity Wind Precip. Elev Updated Type
                   

Watches & Warnings

There are currently no watches in effect.